createdAt,value
2022-11-06T00:00:37.205Z,72.80
2022-11-06T00:03:06.217Z,72.90
2022-11-06T00:05:52.084Z,73.00
2022-11-06T00:08:30.638Z,73.00
2022-11-06T00:10:59.270Z,73.80
2022-11-06T00:13:28.309Z,73.30
2022-11-06T00:15:56.659Z,73.50
2022-11-06T00:18:28.270Z,74.10
2022-11-06T00:20:56.564Z,73.70
2022-11-06T00:23:25.084Z,73.50
2022-11-06T00:25:56.686Z,73.40
2022-11-06T00:28:25.032Z,73.50
2022-11-06T00:31:01.438Z,73.40
2022-11-06T00:33:29.682Z,73.60
2022-11-06T00:35:57.960Z,73.60
2022-11-06T00:38:26.504Z,73.90
2022-11-06T00:40:56.399Z,74.00
2022-11-06T00:43:24.641Z,74.20
2022-11-06T00:45:52.934Z,74.10
2022-11-06T00:48:21.370Z,74.10
2022-11-06T00:50:49.777Z,74.10
2022-11-06T00:53:18.056Z,74.10
2022-11-06T00:55:46.325Z,74.20
2022-11-06T00:58:16.070Z,74.30
2022-11-06T01:00:44.465Z,74.40
2022-11-06T01:03:12.848Z,74.50
2022-11-06T01:05:42.140Z,74.50
2022-11-06T01:08:10.490Z,74.60
2022-11-06T01:10:39.072Z,74.50
2022-11-06T01:13:07.302Z,74.80
2022-11-06T01:15:38.585Z,74.70
2022-11-06T01:18:06.881Z,75.20
2022-11-06T01:20:35.276Z,74.90
2022-11-06T01:23:03.515Z,75.00
2022-11-06T01:25:32.189Z,75.00
2022-11-06T01:28:00.581Z,75.30
2022-11-06T01:30:28.809Z,75.30
2022-11-06T01:32:58.464Z,75.40
2022-11-06T01:35:26.703Z,75.70
2022-11-06T01:37:54.911Z,75.50
2022-11-06T01:40:23.132Z,75.60
2022-11-06T01:42:51.569Z,75.70
2022-11-06T01:45:30.927Z,75.80
2022-11-06T01:48:01.183Z,76.20
2022-11-06T01:50:29.449Z,76.00
2022-11-06T01:53:00.839Z,75.70
2022-11-06T01:55:33.926Z,75.80
2022-11-06T01:58:04.742Z,75.80
2022-11-06T02:00:33.060Z,76.00
2022-11-06T02:03:03.699Z,76.00
2022-11-06T02:05:32.505Z,76.20
2022-11-06T02:08:02.495Z,75.90
2022-11-06T02:10:31.346Z,76.00
2022-11-06T02:13:16.653Z,76.10
2022-11-06T02:15:50.647Z,76.60
2022-11-06T02:18:46.422Z,76.50
2022-11-06T02:21:49.968Z,76.90
2022-11-06T02:24:43.637Z,76.90
2022-11-06T02:27:15.233Z,76.90
2022-11-06T02:29:50.328Z,76.40
2022-11-06T02:32:22.662Z,76.60
2022-11-06T02:34:54.254Z,76.50
2022-11-06T02:37:28.765Z,76.60
2022-11-06T02:40:01.500Z,76.80
2022-11-06T02:42:32.871Z,76.70
2022-11-06T02:45:03.594Z,76.90
2022-11-06T02:47:34.789Z,76.70
2022-11-06T02:50:08.256Z,76.80
2022-11-06T02:52:40.071Z,76.90
2022-11-06T02:55:14.039Z,76.80
2022-11-06T02:57:48.036Z,76.80
2022-11-06T03:00:18.331Z,76.90
2022-11-06T03:02:52.833Z,76.70
2022-11-06T03:05:25.641Z,76.90
2022-11-06T03:08:00.371Z,76.80
2022-11-06T03:10:35.233Z,76.90
2022-11-06T03:13:11.552Z,77.00
2022-11-06T03:15:44.506Z,77.10
2022-11-06T03:18:16.631Z,76.90
2022-11-06T03:20:55.991Z,77.20
2022-11-06T03:23:28.573Z,77.40
2022-11-06T03:26:06.562Z,77.10
2022-11-06T03:28:40.025Z,77.30
2022-11-06T03:31:12.160Z,77.20
2022-11-06T03:33:44.914Z,76.80
2022-11-06T03:36:17.120Z,77.00
2022-11-06T03:38:50.019Z,77.20
2022-11-06T03:41:25.284Z,77.20
2022-11-06T03:43:57.292Z,77.40
2022-11-06T03:46:27.916Z,77.20
2022-11-06T03:48:59.813Z,77.00
2022-11-06T03:51:34.726Z,77.10
2022-11-06T03:54:07.151Z,77.40
2022-11-06T03:56:41.781Z,77.30
2022-11-06T03:59:13.963Z,77.50
2022-11-06T04:01:46.712Z,77.50
2022-11-06T04:04:20.341Z,77.50
2022-11-06T04:06:53.743Z,77.50
2022-11-06T04:09:43.143Z,77.50
2022-11-06T04:12:35.545Z,77.50
2022-11-06T04:15:06.324Z,77.70
2022-11-06T04:17:35.228Z,77.80
2022-11-06T04:20:06.423Z,77.90
2022-11-06T04:22:45.775Z,78.10
2022-11-06T04:25:44.966Z,78.50
2022-11-06T04:28:24.556Z,78.40
2022-11-06T04:31:03.247Z,78.30
2022-11-06T04:33:38.317Z,78.20
2022-11-06T04:36:14.368Z,78.20
2022-11-06T04:38:51.120Z,78.30
2022-11-06T04:41:26.791Z,78.20
2022-11-06T04:43:59.814Z,78.30
2022-11-06T04:46:33.812Z,78.30
2022-11-06T04:49:04.244Z,78.50
2022-11-06T04:51:35.093Z,78.30
2022-11-06T04:54:03.705Z,78.30
2022-11-06T04:56:35.606Z,78.10
2022-11-06T04:59:06.024Z,78.10
2022-11-06T05:01:35.734Z,78.20
2022-11-06T05:04:04.025Z,78.20
2022-11-06T05:06:32.238Z,78.10
2022-11-06T05:09:01.274Z,78.20
2022-11-06T05:11:29.583Z,78.30
2022-11-06T05:13:57.846Z,78.20
2022-11-06T05:16:26.049Z,78.10
2022-11-06T05:18:55.653Z,77.90
2022-11-06T05:21:41.768Z,77.90
2022-11-06T05:24:10.155Z,77.70
2022-11-06T05:26:38.415Z,77.50
2022-11-06T05:29:06.698Z,77.50
2022-11-06T05:31:34.946Z,77.60
2022-11-06T05:34:04.674Z,77.50
2022-11-06T05:36:33.136Z,77.80
2022-11-06T05:39:01.361Z,77.60
2022-11-06T05:41:29.572Z,77.50
2022-11-06T05:43:58.449Z,77.60
2022-11-06T05:46:47.632Z,77.60
2022-11-06T05:49:17.017Z,77.60
2022-11-06T05:51:45.376Z,77.60
2022-11-06T05:54:14.128Z,77.60
2022-11-06T05:56:42.349Z,77.80
2022-11-06T05:59:10.692Z,77.90
2022-11-06T06:01:39.001Z,77.90
2022-11-06T06:04:07.313Z,77.90
2022-11-06T06:06:37.832Z,77.80
2022-11-06T06:09:06.120Z,77.90
2022-11-06T06:11:34.441Z,77.80
2022-11-06T06:14:03.275Z,77.80
2022-11-06T06:16:31.937Z,77.90
2022-11-06T06:19:00.168Z,77.80
2022-11-06T06:21:28.710Z,77.80
2022-11-06T06:23:58.400Z,77.80
2022-11-06T06:26:26.828Z,77.90
2022-11-06T06:28:55.100Z,77.80
2022-11-06T06:31:23.686Z,77.90
2022-11-06T06:33:51.991Z,78.10
2022-11-06T06:36:20.285Z,78.10
2022-11-06T06:38:48.516Z,78.10
2022-11-06T06:41:18.124Z,78.10
2022-11-06T06:43:49.554Z,78.30
2022-11-06T06:46:18.582Z,78.40
2022-11-06T06:48:46.823Z,78.30
2022-11-06T06:51:19.656Z,78.00
2022-11-06T06:53:51.705Z,78.00
2022-11-06T06:56:21.360Z,77.80
2022-11-06T06:58:49.830Z,78.10
2022-11-06T07:01:18.135Z,77.90
2022-11-06T07:03:46.401Z,77.90
2022-11-06T07:06:14.602Z,77.80
2022-11-06T07:08:42.830Z,77.90
2022-11-06T07:11:12.672Z,78.00
2022-11-06T07:13:42.259Z,78.10
2022-11-06T07:16:11.740Z,78.10
2022-11-06T07:18:40.861Z,78.00
2022-11-06T07:21:11.842Z,78.10
2022-11-06T07:23:40.512Z,78.00
2022-11-06T07:26:08.912Z,78.20
2022-11-06T07:28:37.366Z,78.20
2022-11-06T07:31:09.229Z,78.00
2022-11-06T07:33:37.680Z,78.00
2022-11-06T07:36:07.077Z,77.70
2022-11-06T07:38:35.915Z,77.70
2022-11-06T07:41:05.422Z,77.70
2022-11-06T07:43:33.921Z,77.80
2022-11-06T07:46:03.348Z,77.90
2022-11-06T07:48:34.071Z,78.00
2022-11-06T07:51:04.632Z,78.00
2022-11-06T07:53:33.117Z,78.00
2022-11-06T07:56:01.446Z,77.80
2022-11-06T07:58:30.187Z,77.90
2022-11-06T08:00:59.637Z,78.10
2022-11-06T08:03:30.253Z,78.20
2022-11-06T08:06:00.598Z,78.00
2022-11-06T08:08:29.697Z,78.10
2022-11-06T08:11:02.114Z,78.00
2022-11-06T08:13:30.346Z,78.00
2022-11-06T08:15:58.597Z,77.90
2022-11-06T08:18:26.809Z,77.90
2022-11-06T08:20:55.104Z,77.90
2022-11-06T08:23:24.894Z,77.80
2022-11-06T08:25:55.746Z,77.90
2022-11-06T08:28:24.272Z,78.00
2022-11-06T08:30:53.157Z,78.00
2022-11-06T08:33:22.718Z,77.90
2022-11-06T08:35:51.207Z,77.80
2022-11-06T08:38:19.423Z,77.80
2022-11-06T08:40:53.392Z,77.70
2022-11-06T08:43:24.218Z,77.80
2022-11-06T08:45:52.455Z,77.80
2022-11-06T08:48:20.681Z,77.60
2022-11-06T08:50:48.898Z,77.60
2022-11-06T08:53:17.949Z,77.70
2022-11-06T08:55:46.589Z,77.70
2022-11-06T08:58:16.453Z,77.70
2022-11-06T09:00:44.941Z,77.50
2022-11-06T09:03:16.006Z,78.00
2022-11-06T09:05:45.609Z,77.40
2022-11-06T09:08:14.628Z,77.30
2022-11-06T09:10:43.763Z,77.30
2022-11-06T09:13:13.033Z,77.30
2022-11-06T09:15:43.280Z,77.40
2022-11-06T09:18:12.569Z,77.50
2022-11-06T09:20:41.174Z,77.30
2022-11-06T09:23:11.087Z,77.20
2022-11-06T09:25:39.552Z,76.80
2022-11-06T09:28:07.766Z,76.50
2022-11-06T09:30:35.965Z,76.30
2022-11-06T09:33:09.289Z,76.30
2022-11-06T09:35:41.463Z,76.20
2022-11-06T09:38:12.969Z,76.30
2022-11-06T09:40:44.632Z,76.20
2022-11-06T09:43:50.043Z,76.10
2022-11-06T09:46:23.167Z,76.20
2022-11-06T09:48:58.079Z,76.00
2022-11-06T09:51:34.253Z,76.10
2022-11-06T09:54:08.773Z,76.10
2022-11-06T09:56:41.093Z,75.80
2022-11-06T09:59:14.067Z,75.70
2022-11-06T10:01:47.024Z,75.80
2022-11-06T10:04:28.258Z,75.70
2022-11-06T10:06:56.686Z,74.70
2022-11-06T10:09:24.942Z,75.00
2022-11-06T10:12:03.896Z,74.60
2022-11-06T10:14:53.816Z,72.80
2022-11-06T10:17:36.466Z,71.90
2022-11-06T10:20:13.758Z,70.00
2022-11-06T10:22:43.428Z,68.90
2022-11-06T10:25:22.268Z,68.80
2022-11-06T10:28:01.792Z,66.60
2022-11-06T10:30:37.730Z,66.00
2022-11-06T10:33:16.999Z,65.90
2022-11-06T10:35:50.628Z,65.70
2022-11-06T10:38:23.975Z,65.00
2022-11-06T10:40:54.052Z,64.50
2022-11-06T10:43:30.320Z,63.60
2022-11-06T10:46:03.907Z,62.00
2022-11-06T10:48:41.625Z,61.90
2022-11-06T10:51:37.539Z,60.90
2022-11-06T10:54:19.896Z,60.00
2022-11-06T10:57:09.705Z,59.40
2022-11-06T10:59:38.104Z,58.30
2022-11-06T11:02:21.459Z,59.10
2022-11-06T11:04:51.878Z,57.50
2022-11-06T11:07:25.052Z,57.50
2022-11-06T11:09:53.512Z,56.30
2022-11-06T11:12:25.041Z,56.30
2022-11-06T11:15:16.498Z,54.80
2022-11-06T11:18:05.207Z,53.30
2022-11-06T11:20:36.268Z,54.70
2022-11-06T11:23:18.833Z,54.20
2022-11-06T11:25:49.083Z,52.50
2022-11-06T11:28:27.854Z,53.30
2022-11-06T11:30:59.012Z,51.50
2022-11-06T11:33:27.865Z,51.40
2022-11-06T11:35:56.257Z,51.40
2022-11-06T11:38:26.615Z,50.80
2022-11-06T11:41:07.550Z,50.30
2022-11-06T11:43:36.163Z,50.10
2022-11-06T11:46:07.247Z,50.80
2022-11-06T11:48:47.447Z,49.90
2022-11-06T11:51:33.249Z,50.10
2022-11-06T11:54:07.354Z,50.30
2022-11-06T11:57:03.593Z,50.00
2022-11-06T11:59:37.738Z,50.20
2022-11-06T12:02:20.914Z,50.20
2022-11-06T12:04:55.918Z,49.10
2022-11-06T12:07:29.018Z,49.40
2022-11-06T12:09:59.723Z,49.30
2022-11-06T12:12:32.123Z,52.50
2022-11-06T12:15:18.335Z,49.20
2022-11-06T12:17:51.971Z,48.30
2022-11-06T12:20:25.628Z,48.20
2022-11-06T12:22:57.910Z,47.80
2022-11-06T12:25:36.046Z,47.60
2022-11-06T12:28:06.330Z,47.20
2022-11-06T12:30:37.623Z,47.40
2022-11-06T12:33:12.310Z,47.00
2022-11-06T12:35:46.064Z,47.10
2022-11-06T12:38:22.608Z,47.60
2022-11-06T12:41:00.847Z,48.00
2022-11-06T12:43:38.824Z,48.40
2022-11-06T12:46:25.047Z,48.70
2022-11-06T12:49:41.461Z,47.70
2022-11-06T12:52:25.171Z,47.80
2022-11-06T12:55:12.210Z,47.60
2022-11-06T12:57:57.346Z,47.60
2022-11-06T13:00:32.871Z,48.40
2022-11-06T13:03:20.725Z,49.50
2022-11-06T13:05:56.756Z,49.60
2022-11-06T13:08:35.072Z,50.10
2022-11-06T13:11:19.043Z,50.30
2022-11-06T13:13:59.885Z,50.60
2022-11-06T13:16:34.870Z,50.70
2022-11-06T13:19:12.001Z,51.00
2022-11-06T13:22:10.431Z,50.70
2022-11-06T13:24:44.307Z,49.90
2022-11-06T13:27:19.084Z,49.70
2022-11-06T13:29:49.290Z,49.60
2022-11-06T13:32:20.526Z,48.80
2022-11-06T13:34:51.150Z,48.80
2022-11-06T13:37:21.781Z,48.90
2022-11-06T13:39:55.221Z,49.20
2022-11-06T13:42:28.477Z,49.50
2022-11-06T13:44:58.977Z,49.60
2022-11-06T13:47:34.121Z,51.10
2022-11-06T13:50:09.168Z,50.40
2022-11-06T13:52:44.905Z,50.10
2022-11-06T13:55:19.596Z,50.30
2022-11-06T13:58:09.133Z,50.50
2022-11-06T14:00:49.923Z,51.10
2022-11-06T14:03:51.288Z,51.40
2022-11-06T14:06:22.942Z,51.80
2022-11-06T14:08:53.684Z,52.10
2022-11-06T14:11:27.536Z,52.50
2022-11-06T14:14:02.107Z,52.60
2022-11-06T14:16:34.365Z,52.90
2022-11-06T14:19:06.634Z,53.00
2022-11-06T14:21:54.064Z,53.10
2022-11-06T14:24:40.822Z,53.50
2022-11-06T14:27:13.913Z,53.90
2022-11-06T14:30:01.179Z,54.10
2022-11-06T14:32:57.415Z,54.50
2022-11-06T14:35:54.054Z,54.70
2022-11-06T14:38:38.578Z,54.80
2022-11-06T14:41:49.705Z,54.90
2022-11-06T14:44:40.239Z,55.20
2022-11-06T14:47:21.334Z,55.30
2022-11-06T14:49:55.138Z,55.30
2022-11-06T14:52:26.062Z,55.40
2022-11-06T14:55:04.476Z,55.50
2022-11-06T14:57:42.959Z,55.60
2022-11-06T15:00:17.199Z,55.70
2022-11-06T15:02:46.340Z,55.90
2022-11-06T15:05:19.868Z,55.90
2022-11-06T15:08:05.059Z,56.20
2022-11-06T15:10:54.064Z,56.50
2022-11-06T15:13:30.008Z,56.80
2022-11-06T15:16:13.826Z,56.80
2022-11-06T15:18:45.412Z,57.00
2022-11-06T15:21:23.869Z,57.10
2022-11-06T15:24:02.948Z,57.30
2022-11-06T15:26:38.074Z,57.50
2022-11-06T15:29:18.201Z,57.50
2022-11-06T15:31:49.164Z,57.80
2022-11-06T15:34:22.016Z,57.70
2022-11-06T15:36:56.749Z,57.90
2022-11-06T15:39:34.578Z,57.90
2022-11-06T15:42:02.938Z,58.10
2022-11-06T15:44:31.306Z,58.00
2022-11-06T15:47:00.521Z,58.20
2022-11-06T15:49:28.851Z,58.30
2022-11-06T15:52:00.343Z,58.40
2022-11-06T15:54:37.132Z,58.50
2022-11-06T15:57:12.642Z,58.70
2022-11-06T15:59:40.900Z,58.80
2022-11-06T16:02:16.976Z,58.80
2022-11-06T16:04:46.164Z,59.20
2022-11-06T16:07:17.495Z,59.70
2022-11-06T16:09:46.572Z,59.40
2022-11-06T16:12:17.881Z,59.40
2022-11-06T16:14:46.730Z,59.60
2022-11-06T16:17:19.811Z,59.70
2022-11-06T16:19:52.695Z,59.80
2022-11-06T16:22:28.757Z,59.90
2022-11-06T16:25:00.599Z,60.00
2022-11-06T16:27:33.697Z,60.20
2022-11-06T16:30:04.417Z,60.40
2022-11-06T16:32:39.279Z,60.50
2022-11-06T16:35:31.506Z,60.70
2022-11-06T16:38:42.207Z,61.20
2022-11-06T16:41:38.386Z,61.20
2022-11-06T16:44:24.876Z,60.90
2022-11-06T16:47:18.502Z,61.60
2022-11-06T16:49:53.618Z,61.80
2022-11-06T16:52:33.707Z,61.40
2022-11-06T16:55:05.793Z,62.00
2022-11-06T16:57:37.370Z,62.00
2022-11-06T17:00:09.453Z,62.00
2022-11-06T17:02:39.478Z,62.20
2022-11-06T17:05:10.351Z,62.30
2022-11-06T17:07:39.621Z,62.30
2022-11-06T17:10:41.228Z,62.60
2022-11-06T17:13:15.692Z,63.30
2022-11-06T17:15:45.798Z,63.20
2022-11-06T17:18:18.420Z,63.10
2022-11-06T17:20:54.102Z,63.40
2022-11-06T17:23:23.390Z,63.70
2022-11-06T17:25:55.622Z,63.50
2022-11-06T17:28:24.055Z,63.90
2022-11-06T17:30:52.745Z,63.80
2022-11-06T17:33:21.073Z,64.00
2022-11-06T17:35:52.334Z,64.00
2022-11-06T17:38:20.624Z,64.30
2022-11-06T17:40:48.845Z,64.10
2022-11-06T17:43:18.486Z,64.30
2022-11-06T17:45:49.935Z,64.50
2022-11-06T17:48:19.111Z,64.70
2022-11-06T17:51:04.591Z,64.80
2022-11-06T17:53:32.860Z,65.00
2022-11-06T17:56:04.160Z,65.20
2022-11-06T17:58:34.642Z,65.50
2022-11-06T18:01:07.779Z,65.70
2022-11-06T18:03:37.008Z,66.00
2022-11-06T18:06:05.579Z,65.80
2022-11-06T18:08:35.061Z,66.00
2022-11-06T18:11:03.425Z,66.30
2022-11-06T18:13:33.845Z,66.60
2022-11-06T18:16:02.349Z,66.90
2022-11-06T18:18:30.872Z,66.80
2022-11-06T18:20:59.119Z,67.90
2022-11-06T18:23:27.643Z,67.10
2022-11-06T18:25:57.111Z,67.30
2022-11-06T18:28:26.114Z,67.40
2022-11-06T18:30:55.822Z,67.50
2022-11-06T18:33:24.025Z,67.80
2022-11-06T18:35:52.241Z,67.60
2022-11-06T18:38:20.673Z,67.80
2022-11-06T18:40:51.765Z,67.80
2022-11-06T18:43:20.350Z,67.90
2022-11-06T18:45:48.693Z,68.00
2022-11-06T18:48:21.586Z,68.00
2022-11-06T18:50:50.385Z,68.20
2022-11-06T18:53:18.557Z,68.30
2022-11-06T18:55:47.549Z,68.50
2022-11-06T18:58:16.341Z,68.60
2022-11-06T19:00:44.742Z,68.70
2022-11-06T19:03:13.918Z,68.70
2022-11-06T19:05:48.519Z,68.70
2022-11-06T19:08:17.167Z,69.20
2022-11-06T19:10:45.660Z,68.80
2022-11-06T19:13:13.960Z,68.80
2022-11-06T19:15:43.132Z,68.90
2022-11-06T19:18:11.891Z,69.10
2022-11-06T19:20:41.422Z,69.20
2022-11-06T19:23:15.118Z,69.40
2022-11-06T19:25:45.759Z,69.60
2022-11-06T19:28:14.379Z,69.20
2022-11-06T19:30:42.817Z,69.20
2022-11-06T19:33:12.414Z,69.30
2022-11-06T19:35:41.456Z,69.30
2022-11-06T19:38:11.536Z,69.20
2022-11-06T19:40:39.767Z,69.50
2022-11-06T19:43:09.571Z,69.30
2022-11-06T19:45:37.837Z,69.50
2022-11-06T19:48:06.830Z,69.50
2022-11-06T19:51:00.799Z,69.60
2022-11-06T19:53:25.508Z,69.60
2022-11-06T19:55:54.008Z,69.70
2022-11-06T19:58:22.983Z,69.60
2022-11-06T20:00:54.677Z,69.80
2022-11-06T20:03:24.538Z,70.10
2022-11-06T20:05:55.182Z,69.90
2022-11-06T20:08:25.129Z,70.00
2022-11-06T20:10:53.612Z,70.10
2022-11-06T20:13:21.855Z,70.10
2022-11-06T20:15:50.066Z,70.20
2022-11-06T20:18:18.296Z,70.30
2022-11-06T20:20:46.569Z,70.40
2022-11-06T20:23:15.248Z,70.50
2022-11-06T20:25:45.089Z,70.60
2022-11-06T20:28:13.285Z,70.80
2022-11-06T20:30:41.525Z,70.60
2022-11-06T20:33:09.743Z,70.50
2022-11-06T20:35:38.803Z,70.50
2022-11-06T20:38:07.776Z,70.40
2022-11-06T20:40:36.325Z,70.40
2022-11-06T20:43:08.507Z,70.40
2022-11-06T20:45:37.570Z,70.60
2022-11-06T20:48:06.667Z,70.50
2022-11-06T20:50:35.337Z,70.60
2022-11-06T20:53:03.629Z,70.70
2022-11-06T20:55:32.156Z,70.70
2022-11-06T20:58:00.446Z,70.70
2022-11-06T21:00:30.374Z,70.80
2022-11-06T21:03:01.765Z,71.10
2022-11-06T21:05:30.338Z,71.20
2022-11-06T21:07:59.028Z,71.10
2022-11-06T21:10:27.220Z,71.30
2022-11-06T21:12:56.827Z,71.30
2022-11-06T21:15:25.426Z,71.40
2022-11-06T21:17:55.503Z,71.40
2022-11-06T21:20:24.108Z,71.60
2022-11-06T21:22:52.387Z,71.30
2022-11-06T21:25:20.682Z,71.20
2022-11-06T21:27:48.966Z,71.20
2022-11-06T21:30:17.365Z,71.20
2022-11-06T21:32:45.860Z,71.20
2022-11-06T21:35:18.653Z,71.10
2022-11-06T21:37:48.392Z,71.10
2022-11-06T21:40:18.146Z,71.00
2022-11-06T21:42:46.448Z,70.90
2022-11-06T21:45:15.145Z,70.80
2022-11-06T21:47:43.414Z,70.90
2022-11-06T21:50:11.961Z,70.90
2022-11-06T21:52:59.150Z,70.80
2022-11-06T21:55:44.640Z,70.90
2022-11-06T21:58:13.167Z,70.70
2022-11-06T22:00:41.868Z,70.70
2022-11-06T22:03:10.463Z,70.70
2022-11-06T22:05:39.526Z,70.70
2022-11-06T22:08:09.811Z,70.70
2022-11-06T22:10:38.051Z,70.70
2022-11-06T22:13:06.357Z,70.60
2022-11-06T22:15:34.580Z,70.60
2022-11-06T22:18:02.961Z,70.50
2022-11-06T22:20:31.286Z,70.40
2022-11-06T22:22:59.754Z,70.30
2022-11-06T22:25:29.362Z,70.30
2022-11-06T22:27:57.577Z,70.30
2022-11-06T22:30:25.852Z,70.10
2022-11-06T22:32:54.078Z,70.00
2022-11-06T22:35:22.401Z,70.00
2022-11-06T22:37:50.593Z,69.90
2022-11-06T22:40:18.958Z,69.80
2022-11-06T22:42:50.194Z,69.80
2022-11-06T22:45:20.097Z,69.80
2022-11-06T22:47:48.801Z,69.60
2022-11-06T22:50:17.029Z,69.60
2022-11-06T22:52:45.304Z,69.60
2022-11-06T22:55:13.564Z,69.60
2022-11-06T22:57:41.804Z,69.50
2022-11-06T23:00:13.134Z,69.50
2022-11-06T23:02:41.413Z,69.60
2022-11-06T23:05:09.960Z,69.50
2022-11-06T23:07:38.415Z,69.50
2022-11-06T23:10:07.915Z,69.50
2022-11-06T23:12:36.461Z,69.50
2022-11-06T23:15:05.072Z,69.60
2022-11-06T23:17:37.443Z,69.50
2022-11-06T23:20:06.446Z,69.60
2022-11-06T23:22:37.292Z,69.50
2022-11-06T23:25:06.576Z,69.50
2022-11-06T23:27:35.757Z,69.60
2022-11-06T23:30:04.871Z,69.60
2022-11-06T23:32:38.295Z,69.60
2022-11-06T23:35:12.945Z,69.70
2022-11-06T23:37:42.407Z,69.50
2022-11-06T23:40:12.134Z,69.60
2022-11-06T23:42:40.880Z,69.60
2022-11-06T23:45:28.706Z,69.50
2022-11-06T23:47:58.347Z,69.60
2022-11-06T23:50:26.651Z,69.60
2022-11-06T23:52:57.710Z,69.60
2022-11-06T23:55:25.946Z,69.70
2022-11-06T23:57:54.179Z,69.60
